Time;durP1;ratioP1;P1;durP2;ratioP2;P2;SDS_P1;SDS_P2;PMS_P1;PMS_P2;Temp;Humidity;BMP_temperature;BMP_pressure;BME280_temperature;BME280_humidity;BME280_pressure;Samples;Min_cycle;Max_cycle;Signal;HPM_P1;HPM_P2
2023/10/15 00:00:40;;;;;;;3.45;0.95;;;;;;;;;;4966928;28;20109;-82
2023/10/15 00:03:07;;;;;;;0.80;0.80;;;;;;;;;;4972975;28;20516;-82
2023/10/15 00:05:32;;;;;;;1.83;0.90;;;;;;;;;;4971986;28;20034;-82
2023/10/15 00:07:58;;;;;;;3.35;1.00;;;;;;;;;;4966715;28;20033;-81
2023/10/15 00:10:25;;;;;;;3.75;0.98;;;;;;;;;;4969062;28;22081;-82
2023/10/15 00:12:52;;;;;;;4.45;1.23;;;;;;;;;;4970045;28;20539;-81
2023/10/15 00:15:19;;;;;;;5.22;0.75;;;;;;;;;;4967614;28;20045;-81
2023/10/15 00:17:50;;;;;;;1.98;0.77;;;;;;;;;;4969104;28;20537;-82
2023/10/15 00:20:16;;;;;;;0.73;0.73;;;;;;;;;;4967500;28;20034;-81
2023/10/15 00:22:43;;;;;;;0.80;0.80;;;;;;;;;;4967755;28;20385;-82
2023/10/15 00:25:12;;;;;;;1.17;0.55;;;;;;;;;;4973312;28;20089;-82
2023/10/15 00:27:59;;;;;;;0.77;0.77;;;;;;;;;;4970709;28;20441;-81
2023/10/15 00:30:34;;;;;;;0.57;0.57;;;;;;;;;;4971879;28;20019;-82
2023/10/15 00:33:06;;;;;;;4.38;0.93;;;;;;;;;;4969599;28;20297;-82
2023/10/15 00:35:35;;;;;;;1.10;1.00;;;;;;;;;;4966899;28;20110;-82
2023/10/15 00:38:10;;;;;;;2.05;0.90;;;;;;;;;;4967443;28;20313;-82
2023/10/15 00:40:37;;;;;;;0.60;0.60;;;;;;;;;;4969889;28;20034;-81
2023/10/15 00:43:04;;;;;;;3.65;0.90;;;;;;;;;;4967239;28;20026;-82
2023/10/15 00:45:35;;;;;;;0.43;0.43;;;;;;;;;;4970304;28;20494;-82
2023/10/15 00:48:07;;;;;;;0.30;0.30;;;;;;;;;;4965974;28;20424;-82
2023/10/15 00:50:38;;;;;;;3.00;0.80;;;;;;;;;;4967545;28;20055;-82
2023/10/15 00:53:07;;;;;;;1.50;0.73;;;;;;;;;;4969634;28;20039;-82
2023/10/15 00:55:36;;;;;;;1.60;0.77;;;;;;;;;;4968778;28;20524;-81
2023/10/15 00:58:08;;;;;;;1.80;0.60;;;;;;;;;;4970466;28;20018;-82
2023/10/15 01:00:39;;;;;;;0.50;0.50;;;;;;;;;;4964084;28;20482;-81
2023/10/15 01:03:07;;;;;;;1.88;0.63;;;;;;;;;;4963991;28;20094;-82
2023/10/15 01:05:36;;;;;;;0.50;0.50;;;;;;;;;;4969124;28;20023;-81
2023/10/15 01:08:04;;;;;;;0.50;0.50;;;;;;;;;;4964323;28;20109;-82
2023/10/15 01:10:39;;;;;;;3.78;0.93;;;;;;;;;;4967227;28;20054;-82
2023/10/15 01:13:30;;;;;;;0.70;0.70;;;;;;;;;;4972577;28;20911;-82
2023/10/15 01:15:58;;;;;;;1.80;0.98;;;;;;;;;;4971830;28;20113;-81
2023/10/15 01:18:23;;;;;;;1.33;0.60;;;;;;;;;;4972146;28;20069;-82
2023/10/15 01:20:49;;;;;;;2.13;0.70;;;;;;;;;;4966770;28;20043;-81
2023/10/15 01:23:43;;;;;;;1.35;0.90;;;;;;;;;;4970329;28;20499;-81
2023/10/15 01:26:17;;;;;;;2.95;0.80;;;;;;;;;;4970180;28;20026;-82
2023/10/15 01:28:45;;;;;;;0.47;0.47;;;;;;;;;;4968295;28;20031;-82
2023/10/15 01:31:15;;;;;;;1.10;0.68;;;;;;;;;;4971893;28;20386;-82
2023/10/15 01:33:47;;;;;;;1.58;0.73;;;;;;;;;;4970994;28;20037;-82
2023/10/15 01:36:19;;;;;;;0.43;0.40;;;;;;;;;;4970311;28;20218;-82
2023/10/15 01:38:45;;;;;;;1.50;0.98;;;;;;;;;;4970647;28;20058;-81
2023/10/15 01:41:16;;;;;;;2.15;1.15;;;;;;;;;;4961865;28;20051;-82
2023/10/15 01:43:46;;;;;;;4.50;0.60;;;;;;;;;;4970165;28;20125;-82
2023/10/15 01:46:39;;;;;;;0.73;0.52;;;;;;;;;;4965575;28;20070;-82
2023/10/15 01:49:06;;;;;;;0.70;0.70;;;;;;;;;;4968742;28;20031;-82
2023/10/15 01:51:36;;;;;;;5.75;1.15;;;;;;;;;;4963730;28;20093;-81
2023/10/15 01:54:05;;;;;;;1.00;0.60;;;;;;;;;;4966805;28;20037;-82
2023/10/15 01:56:31;;;;;;;3.40;0.73;;;;;;;;;;4973479;28;20026;-82
2023/10/15 01:59:07;;;;;;;1.60;0.98;;;;;;;;;;4974920;28;20035;-81
2023/10/15 02:01:37;;;;;;;;;;;;;;;;;;4974551;28;20129;-81
2023/10/15 02:04:03;;;;;;;1.40;0.90;;;;;;;;;;4974434;28;19973;-81
2023/10/15 02:06:31;;;;;;;3.10;1.05;;;;;;;;;;4974879;28;20014;-81
2023/10/15 02:08:56;;;;;;;1.75;0.65;;;;;;;;;;4973134;28;20039;-81
2023/10/15 02:11:21;;;;;;;3.80;0.60;;;;;;;;;;4972713;28;20787;-82
2023/10/15 02:13:48;;;;;;;4.35;0.90;;;;;;;;;;4975282;28;20038;-81
2023/10/15 02:16:19;;;;;;;1.58;1.05;;;;;;;;;;4972909;28;20050;-81
2023/10/15 02:18:45;;;;;;;3.00;0.70;;;;;;;;;;4974282;28;20031;-81
2023/10/15 02:21:16;;;;;;;0.40;0.40;;;;;;;;;;4973870;28;20026;-81
2023/10/15 02:23:49;;;;;;;2.60;1.07;;;;;;;;;;4973283;28;20030;-82
2023/10/15 02:26:18;;;;;;;2.28;0.80;;;;;;;;;;4972482;28;20256;-81
2023/10/15 02:28:44;;;;;;;2.25;0.75;;;;;;;;;;4964490;28;20030;-81
2023/10/15 02:33:38;;;;;;;6.97;1.00;;;;;;;;;;4971795;28;20212;-80
2023/10/15 02:36:09;;;;;;;0.82;0.70;;;;;;;;;;4966228;28;20037;-80
2023/10/15 02:38:52;;;;;;;1.98;0.95;;;;;;;;;;4967688;28;20468;-81
2023/10/15 02:41:17;;;;;;;2.63;0.77;;;;;;;;;;4969253;28;20030;-80
2023/10/15 02:43:53;;;;;;;0.93;0.90;;;;;;;;;;4973726;28;20030;-80
2023/10/15 02:48:58;;;;;;;2.72;0.85;;;;;;;;;;4971812;28;20101;-80
2023/10/15 02:51:23;;;;;;;0.65;0.65;;;;;;;;;;4974082;28;20042;-81
2023/10/15 02:53:53;;;;;;;5.68;0.95;;;;;;;;;;4975164;28;20109;-80
2023/10/15 02:56:22;;;;;;;2.13;1.00;;;;;;;;;;4974861;28;20027;-80
2023/10/15 02:58:49;;;;;;;2.63;1.15;;;;;;;;;;4973881;28;20027;-81
2023/10/15 03:01:23;;;;;;;3.08;0.60;;;;;;;;;;4974595;28;20041;-81
2023/10/15 03:03:50;;;;;;;2.00;0.75;;;;;;;;;;4979399;28;20034;-81
2023/10/15 03:06:31;;;;;;;0.60;0.60;;;;;;;;;;4965556;28;20026;-80
2023/10/15 03:08:57;;;;;;;0.52;0.52;;;;;;;;;;4972278;28;20107;-80
2023/10/15 03:11:24;;;;;;;1.63;0.90;;;;;;;;;;4973983;28;20065;-81
2023/10/15 03:13:53;;;;;;;0.82;0.73;;;;;;;;;;4972450;28;20031;-80
2023/10/15 03:16:23;;;;;;;1.55;0.70;;;;;;;;;;4969383;28;20025;-80
2023/10/15 03:18:49;;;;;;;0.93;0.85;;;;;;;;;;4973758;28;20062;-80
2023/10/15 03:21:26;;;;;;;1.35;1.20;;;;;;;;;;4972821;28;20030;-81
2023/10/15 03:23:55;;;;;;;1.23;0.73;;;;;;;;;;4972615;28;20062;-81
2023/10/15 03:26:24;;;;;;;1.05;0.75;;;;;;;;;;4970630;28;20336;-80
2023/10/15 03:28:58;;;;;;;4.15;0.57;;;;;;;;;;4973006;28;20023;-80
2023/10/15 03:31:31;;;;;;;1.55;0.63;;;;;;;;;;4966874;28;20037;-81
2023/10/15 03:36:46;;;;;;;0.40;0.40;;;;;;;;;;4972079;28;20053;-80
2023/10/15 03:39:54;;;;;;;0.55;0.43;;;;;;;;;;4972125;28;20034;-81
2023/10/15 03:42:09;;;;;;;0.88;0.88;;;;;;;;;;4969858;28;20039;-81
2023/10/15 03:44:59;;;;;;;0.77;0.50;;;;;;;;;;4965184;28;20035;-81
2023/10/15 03:47:25;;;;;;;4.53;0.75;;;;;;;;;;4980403;28;20296;-80
2023/10/15 03:49:51;;;;;;;1.27;0.82;;;;;;;;;;4990758;28;20042;-81
2023/10/15 03:52:20;;;;;;;6.25;0.95;;;;;;;;;;4993705;28;20018;-81
2023/10/15 03:54:47;;;;;;;0.65;0.52;;;;;;;;;;4992299;28;20022;-81
2023/10/15 03:57:17;;;;;;;0.65;0.65;;;;;;;;;;4996207;28;20026;-80
2023/10/15 03:59:44;;;;;;;3.85;0.88;;;;;;;;;;4998058;28;20023;-80
2023/10/15 04:02:39;;;;;;;1.85;0.85;;;;;;;;;;4999007;28;20019;-80
2023/10/15 04:05:08;;;;;;;1.30;0.77;;;;;;;;;;4999719;28;20083;-81
2023/10/15 04:07:38;;;;;;;4.03;1.05;;;;;;;;;;4998617;28;20019;-80
2023/10/15 04:10:05;;;;;;;1.83;0.68;;;;;;;;;;4990096;28;20074;-81
2023/10/15 04:12:34;;;;;;;1.70;1.00;;;;;;;;;;4992351;28;20015;-80
2023/10/15 04:15:00;;;;;;;4.22;0.82;;;;;;;;;;4993259;28;20011;-80
2023/10/15 04:17:26;;;;;;;0.85;0.63;;;;;;;;;;4996461;28;20035;-80
2023/10/15 04:19:52;;;;;;;1.25;0.80;;;;;;;;;;4998721;28;20030;-80
2023/10/15 04:22:17;;;;;;;3.53;1.05;;;;;;;;;;4999130;28;20042;-81
2023/10/15 04:24:47;;;;;;;0.77;0.77;;;;;;;;;;4998496;28;20015;-80
2023/10/15 04:27:17;;;;;;;1.63;0.50;;;;;;;;;;4997211;28;20019;-81
2023/10/15 04:29:51;;;;;;;0.70;0.70;;;;;;;;;;4995629;28;20022;-80
2023/10/15 04:32:24;;;;;;;3.08;1.20;;;;;;;;;;4998078;28;20174;-80
2023/10/15 04:34:52;;;;;;;1.63;1.00;;;;;;;;;;4997845;28;20054;-80
2023/10/15 04:37:20;;;;;;;0.70;0.70;;;;;;;;;;4996923;28;20034;-80
2023/10/15 04:39:54;;;;;;;0.80;0.77;;;;;;;;;;4999671;28;20074;-80
2023/10/15 04:43:01;;;;;;;0.45;0.45;;;;;;;;;;4994345;28;20046;-80
2023/10/15 04:45:20;;;;;;;5.68;1.27;;;;;;;;;;4998355;28;20026;-81
2023/10/15 04:47:52;;;;;;;4.28;1.25;;;;;;;;;;4997382;28;20014;-78
2023/10/15 04:50:18;;;;;;;;;;;;;;;;;;4996787;28;20022;-80
2023/10/15 04:52:43;;;;;;;1.38;0.90;;;;;;;;;;4996289;28;19910;-80
2023/10/15 04:55:11;;;;;;;0.90;0.70;;;;;;;;;;4998870;28;20030;-80
2023/10/15 04:57:37;;;;;;;0.80;0.68;;;;;;;;;;4992777;28;20079;-80
2023/10/15 05:00:06;;;;;;;2.47;0.52;;;;;;;;;;4996093;28;20034;-80
2023/10/15 05:02:35;;;;;;;2.25;1.05;;;;;;;;;;4993254;28;20022;-80
2023/10/15 05:05:00;;;;;;;0.70;0.70;;;;;;;;;;4996459;28;20033;-80
2023/10/15 05:07:27;;;;;;;0.75;0.75;;;;;;;;;;4987464;28;20014;-80
2023/10/15 05:09:54;;;;;;;0.70;0.52;;;;;;;;;;4993610;28;20037;-81
2023/10/15 05:12:20;;;;;;;1.83;1.23;;;;;;;;;;4989595;28;20560;-81
2023/10/15 05:14:49;;;;;;;2.63;1.23;;;;;;;;;;4976559;28;20062;-82
2023/10/15 05:17:15;;;;;;;3.45;1.00;;;;;;;;;;4974345;28;20022;-81
2023/10/15 05:19:42;;;;;;;1.77;0.98;;;;;;;;;;4975508;28;20023;-82
2023/10/15 05:22:08;;;;;;;1.80;0.80;;;;;;;;;;4976450;28;20465;-81
2023/10/15 05:24:34;;;;;;;2.90;0.88;;;;;;;;;;4974502;28;20401;-81
2023/10/15 05:26:59;;;;;;;3.20;1.00;;;;;;;;;;4970971;28;20235;-81
2023/10/15 05:29:25;;;;;;;0.45;0.45;;;;;;;;;;4974769;28;20054;-81
2023/10/15 05:31:50;;;;;;;2.10;1.00;;;;;;;;;;4975285;28;20031;-81
2023/10/15 05:34:15;;;;;;;0.85;0.82;;;;;;;;;;4973974;28;20502;-82
2023/10/15 05:36:41;;;;;;;2.00;1.10;;;;;;;;;;4973511;28;20027;-81
2023/10/15 05:39:10;;;;;;;8.73;1.40;;;;;;;;;;4970765;28;20034;-81
2023/10/15 05:41:37;;;;;;;2.10;0.98;;;;;;;;;;4978492;28;20054;-81
2023/10/15 05:44:03;;;;;;;5.82;1.30;;;;;;;;;;4982353;28;20030;-80
2023/10/15 05:46:29;;;;;;;1.55;1.05;;;;;;;;;;4979088;28;20026;-81
2023/10/15 05:48:55;;;;;;;2.97;1.10;;;;;;;;;;4979032;28;20117;-81
2023/10/15 05:51:23;;;;;;;2.95;0.90;;;;;;;;;;4981871;28;20069;-81
2023/10/15 05:53:48;;;;;;;7.55;1.13;;;;;;;;;;4980675;28;20034;-81
2023/10/15 05:56:13;;;;;;;1.13;1.00;;;;;;;;;;4977226;28;20031;-80
2023/10/15 05:58:39;;;;;;;3.97;0.88;;;;;;;;;;4975262;28;20028;-80
2023/10/15 06:01:06;;;;;;;1.23;1.10;;;;;;;;;;4978755;28;20037;-81
2023/10/15 06:03:31;;;;;;;5.65;0.98;;;;;;;;;;4977081;28;20081;-81
2023/10/15 06:05:57;;;;;;;0.73;0.47;;;;;;;;;;4976650;28;20031;-81
2023/10/15 06:08:23;;;;;;;5.43;1.02;;;;;;;;;;4969906;28;20122;-81
2023/10/15 06:10:48;;;;;;;0.82;0.80;;;;;;;;;;4979992;28;20065;-81
2023/10/15 06:13:14;;;;;;;1.38;1.27;;;;;;;;;;4978701;28;20023;-80
2023/10/15 06:15:39;;;;;;;1.30;1.20;;;;;;;;;;4981851;28;20133;-82
2023/10/15 06:18:04;;;;;;;7.43;1.55;;;;;;;;;;4978750;28;20070;-81
2023/10/15 06:20:30;;;;;;;2.15;1.05;;;;;;;;;;4978613;28;20074;-80
2023/10/15 06:22:55;;;;;;;0.75;0.68;;;;;;;;;;4980051;28;20038;-82
2023/10/15 06:25:21;;;;;;;1.25;0.80;;;;;;;;;;4975860;28;20022;-80
2023/10/15 06:27:47;;;;;;;0.85;0.65;;;;;;;;;;4973732;28;20097;-81
2023/10/15 06:30:16;;;;;;;1.75;1.13;;;;;;;;;;4977385;28;20109;-81
2023/10/15 06:32:47;;;;;;;4.40;0.93;;;;;;;;;;4979923;28;20034;-81
2023/10/15 06:35:18;;;;;;;1.48;1.25;;;;;;;;;;4975005;28;20023;-81
2023/10/15 06:37:46;;;;;;;4.03;1.48;;;;;;;;;;4978287;28;20027;-81
2023/10/15 06:40:13;;;;;;;1.45;1.08;;;;;;;;;;4975735;28;20073;-81
2023/10/15 06:42:38;;;;;;;6.30;1.33;;;;;;;;;;4971096;28;20034;-81
2023/10/15 06:45:06;;;;;;;1.73;1.35;;;;;;;;;;4977453;28;20110;-82
2023/10/15 06:47:32;;;;;;;1.75;1.02;;;;;;;;;;4977779;28;20035;-81
2023/10/15 06:49:57;;;;;;;3.55;1.77;;;;;;;;;;4977815;28;20037;-81
2023/10/15 06:52:23;;;;;;;2.05;1.40;;;;;;;;;;4970391;28;20074;-82
2023/10/15 06:54:48;;;;;;;1.10;1.00;;;;;;;;;;4980096;28;20041;-81
2023/10/15 06:57:16;;;;;;;0.85;0.82;;;;;;;;;;4977892;28;20479;-81
2023/10/15 06:59:43;;;;;;;4.22;1.00;;;;;;;;;;4979305;28;20425;-81
2023/10/15 07:02:08;;;;;;;1.80;0.88;;;;;;;;;;4971381;28;20035;-82
2023/10/15 07:04:34;;;;;;;3.22;1.00;;;;;;;;;;4977677;28;20362;-81
2023/10/15 07:06:59;;;;;;;2.47;1.08;;;;;;;;;;4977671;28;20435;-81
2023/10/15 07:09:24;;;;;;;1.98;1.00;;;;;;;;;;4980364;28;20037;-82
2023/10/15 07:11:50;;;;;;;1.25;1.20;;;;;;;;;;4979190;28;20033;-82
2023/10/15 07:14:15;;;;;;;3.22;1.40;;;;;;;;;;4980927;28;20046;-81
2023/10/15 07:16:41;;;;;;;1.17;1.00;;;;;;;;;;4982255;28;20019;-82
2023/10/15 07:19:06;;;;;;;4.95;1.05;;;;;;;;;;4973705;28;20445;-81
2023/10/15 07:21:32;;;;;;;3.03;0.90;;;;;;;;;;4980947;28;20074;-81
2023/10/15 07:23:58;;;;;;;1.02;0.95;;;;;;;;;;4981409;28;20035;-82
2023/10/15 07:26:24;;;;;;;0.80;0.77;;;;;;;;;;4979484;28;20039;-82
2023/10/15 07:28:50;;;;;;;1.42;1.20;;;;;;;;;;4979867;28;20126;-82
2023/10/15 07:31:15;;;;;;;1.60;0.73;;;;;;;;;;4983940;28;20036;-81
2023/10/15 07:33:40;;;;;;;1.33;0.98;;;;;;;;;;4986822;28;20035;-81
2023/10/15 07:36:07;;;;;;;1.30;0.88;;;;;;;;;;4984164;28;20058;-81
2023/10/15 07:38:33;;;;;;;3.95;1.50;;;;;;;;;;4982455;28;20022;-81
2023/10/15 07:40:59;;;;;;;1.73;0.77;;;;;;;;;;4983092;28;20058;-81
2023/10/15 07:43:25;;;;;;;2.47;1.30;;;;;;;;;;4981813;28;20090;-81
2023/10/15 07:45:50;;;;;;;3.40;0.90;;;;;;;;;;4984303;28;20071;-81
2023/10/15 07:48:16;;;;;;;0.63;0.63;;;;;;;;;;4982814;28;20019;-81
2023/10/15 07:50:43;;;;;;;2.08;1.02;;;;;;;;;;4983456;28;20023;-81
2023/10/15 07:53:12;;;;;;;3.25;0.57;;;;;;;;;;4977326;28;20046;-82
2023/10/15 07:55:37;;;;;;;1.95;1.23;;;;;;;;;;4979895;28;20105;-82
2023/10/15 07:58:03;;;;;;;1.17;1.00;;;;;;;;;;4981020;28;20031;-82
2023/10/15 08:00:33;;;;;;;4.15;0.90;;;;;;;;;;4982543;28;20117;-82
2023/10/15 08:02:59;;;;;;;2.38;2.05;;;;;;;;;;4981369;28;20015;-82
2023/10/15 08:05:25;;;;;;;1.98;0.90;;;;;;;;;;4980039;28;20033;-82
2023/10/15 08:07:51;;;;;;;1.35;0.95;;;;;;;;;;4979011;28;20129;-81
2023/10/15 08:10:20;;;;;;;1.02;0.82;;;;;;;;;;4971293;28;20401;-81
2023/10/15 08:12:48;;;;;;;1.33;0.88;;;;;;;;;;4976114;28;20034;-82
2023/10/15 08:15:14;;;;;;;1.15;0.75;;;;;;;;;;4981472;28;20033;-81
2023/10/15 08:17:39;;;;;;;2.67;0.93;;;;;;;;;;4981217;28;20035;-81
2023/10/15 08:20:07;;;;;;;0.73;0.73;;;;;;;;;;4992246;28;20117;-82
2023/10/15 08:22:32;;;;;;;1.40;0.93;;;;;;;;;;4986786;28;20026;-82
2023/10/15 08:24:58;;;;;;;0.93;0.70;;;;;;;;;;4985065;28;20037;-81
2023/10/15 08:27:23;;;;;;;0.65;0.65;;;;;;;;;;4983919;28;20015;-82
2023/10/15 08:29:48;;;;;;;2.92;1.20;;;;;;;;;;4982913;28;20065;-81
2023/10/15 08:32:16;;;;;;;0.40;0.40;;;;;;;;;;4983194;28;20139;-81
2023/10/15 08:34:46;;;;;;;2.58;0.82;;;;;;;;;;4985828;28;20026;-81
2023/10/15 08:37:12;;;;;;;3.10;0.93;;;;;;;;;;4984669;28;20081;-83
2023/10/15 08:39:38;;;;;;;2.45;0.75;;;;;;;;;;4985653;28;20025;-82
2023/10/15 08:42:06;;;;;;;5.43;0.80;;;;;;;;;;4981248;28;20114;-81
2023/10/15 08:44:35;;;;;;;1.65;0.70;;;;;;;;;;4981624;28;20034;-82
2023/10/15 08:47:04;;;;;;;1.40;0.75;;;;;;;;;;4985400;28;20124;-81
2023/10/15 08:49:59;;;;;;;2.30;0.40;;;;;;;;;;4985766;28;20026;-80
2023/10/15 08:52:26;;;;;;;0.85;0.70;;;;;;;;;;4977756;28;20034;-81
2023/10/15 08:54:53;;;;;;;1.00;0.82;;;;;;;;;;4986609;28;20030;-82
2023/10/15 08:57:19;;;;;;;3.15;1.35;;;;;;;;;;4985620;28;20034;-83
2023/10/15 08:59:45;;;;;;;2.35;0.68;;;;;;;;;;4983665;28;20014;-86
2023/10/15 09:02:10;;;;;;;1.92;0.75;;;;;;;;;;4983491;28;20126;-80
2023/10/15 09:04:36;;;;;;;2.00;1.27;;;;;;;;;;4981852;28;20098;-79
2023/10/15 09:07:03;;;;;;;1.58;0.75;;;;;;;;;;4978268;28;20038;-79
2023/10/15 09:09:32;;;;;;;1.85;0.75;;;;;;;;;;4980580;28;20018;-80
2023/10/15 09:12:43;;;;;;;1.20;0.77;;;;;;;;;;5135747;27;20376;-85
2023/10/15 09:15:16;;;;;;;3.33;0.63;;;;;;;;;;5120164;28;20024;-82
2023/10/15 09:18:02;;;;;;;1.10;1.00;;;;;;;;;;5132700;28;20024;-82
2023/10/15 09:20:28;;;;;;;0.52;0.40;;;;;;;;;;5140025;27;20027;-80
2023/10/15 09:22:58;;;;;;;3.10;0.90;;;;;;;;;;5125870;28;20029;-80
2023/10/15 09:25:24;;;;;;;0.95;0.50;;;;;;;;;;5129626;28;20076;-82
2023/10/15 09:27:52;;;;;;;1.50;0.55;;;;;;;;;;5133549;28;20027;-81
2023/10/15 09:30:21;;;;;;;1.00;0.65;;;;;;;;;;5132013;27;20069;-80
2023/10/15 09:32:48;;;;;;;2.33;0.68;;;;;;;;;;5130662;28;20097;-80
2023/10/15 09:35:16;;;;;;;0.32;0.32;;;;;;;;;;5132283;27;20389;-80
2023/10/15 09:37:42;;;;;;;0.88;0.73;;;;;;;;;;5131972;28;20564;-80
2023/10/15 09:40:24;;;;;;;3.60;0.98;;;;;;;;;;5127492;28;20049;-83
2023/10/15 09:42:53;;;;;;;0.77;0.55;;;;;;;;;;5113795;28;20027;-81
2023/10/15 09:45:19;;;;;;;1.58;0.90;;;;;;;;;;5130784;28;20027;-82
2023/10/15 09:47:48;;;;;;;0.40;0.40;;;;;;;;;;5130715;28;20107;-83
2023/10/15 09:50:19;;;;;;;1.75;0.90;;;;;;;;;;5117940;28;20027;-83
2023/10/15 09:52:54;;;;;;;0.95;0.57;;;;;;;;;;5117676;28;20043;-83
2023/10/15 09:55:23;;;;;;;1.45;0.75;;;;;;;;;;5115084;28;20072;-83
2023/10/15 09:57:52;;;;;;;1.55;0.77;;;;;;;;;;5128882;28;20485;-83
2023/10/15 10:00:25;;;;;;;1.45;1.05;;;;;;;;;;5135051;27;20485;-81
2023/10/15 10:03:03;;;;;;;0.63;0.32;;;;;;;;;;5132779;28;20027;-83
2023/10/15 10:05:49;;;;;;;1.23;0.45;;;;;;;;;;5134413;28;20026;-82
2023/10/15 10:08:31;;;;;;;0.20;0.20;;;;;;;;;;5134234;28;20019;-83
2023/10/15 10:11:09;;;;;;;;;;;;;;;;;;5134048;28;20030;-83
2023/10/15 10:13:40;;;;;;;0.47;0.35;;;;;;;;;;5132801;28;20021;-83
2023/10/15 10:16:23;;;;;;;0.52;0.52;;;;;;;;;;5132919;27;20058;-83
2023/10/15 10:18:49;;;;;;;1.40;0.60;;;;;;;;;;5128183;28;20477;-82
2023/10/15 10:21:16;;;;;;;2.95;0.70;;;;;;;;;;5134926;27;20122;-83
2023/10/15 10:24:20;;;;;;;0.77;0.55;;;;;;;;;;5122093;28;20030;-83
2023/10/15 10:26:55;;;;;;;0.30;0.30;;;;;;;;;;5036435;28;20597;-85
2023/10/15 10:29:26;;;;;;;3.75;0.75;;;;;;;;;;5109099;28;20040;-85
2023/10/15 10:31:54;;;;;;;0.50;0.50;;;;;;;;;;5122635;27;20051;-82
2023/10/15 10:34:29;;;;;;;1.95;0.52;;;;;;;;;;5124628;28;20032;-80
2023/10/15 10:36:55;;;;;;;1.98;0.93;;;;;;;;;;5126527;28;20020;-81
2023/10/15 10:39:22;;;;;;;1.95;0.90;;;;;;;;;;5129374;28;20023;-82
2023/10/15 10:41:54;;;;;;;0.38;0.38;;;;;;;;;;5124823;28;20998;-82
2023/10/15 10:44:39;;;;;;;2.75;0.90;;;;;;;;;;5116080;28;20042;-82
2023/10/15 10:47:29;;;;;;;1.42;0.98;;;;;;;;;;5116471;28;20027;-82
2023/10/15 10:49:59;;;;;;;2.22;0.93;;;;;;;;;;5116363;28;20016;-83
2023/10/15 10:52:36;;;;;;;0.70;0.70;;;;;;;;;;5111265;28;20098;-83
2023/10/15 10:55:33;;;;;;;2.80;1.00;;;;;;;;;;5119208;28;20048;-83
2023/10/15 10:58:03;;;;;;;0.40;0.40;;;;;;;;;;5117971;28;20015;-83
2023/10/15 11:00:32;;;;;;;0.70;0.60;;;;;;;;;;5125922;28;20034;-84
2023/10/15 11:03:06;;;;;;;1.10;0.82;;;;;;;;;;5124406;28;20818;-82
2023/10/15 11:05:32;;;;;;;4.22;1.02;;;;;;;;;;5119671;28;20039;-83
2023/10/15 11:07:57;;;;;;;3.08;0.75;;;;;;;;;;5120789;28;20024;-83
2023/10/15 11:10:24;;;;;;;1.77;1.20;;;;;;;;;;5120423;28;20020;-84
2023/10/15 11:12:50;;;;;;;4.88;1.00;;;;;;;;;;5116355;27;20063;-83
2023/10/15 11:15:15;;;;;;;1.60;0.85;;;;;;;;;;5113817;28;20028;-83
2023/10/15 11:17:57;;;;;;;3.10;0.90;;;;;;;;;;5111740;28;20248;-83
2023/10/15 11:20:27;;;;;;;2.80;0.50;;;;;;;;;;5116542;28;20025;-84
2023/10/15 11:22:52;;;;;;;2.75;0.90;;;;;;;;;;5113448;28;20290;-84
2023/10/15 11:25:20;;;;;;;0.50;0.50;;;;;;;;;;5117943;28;20028;-84
2023/10/15 11:27:46;;;;;;;1.00;0.68;;;;;;;;;;5110249;28;20040;-83
2023/10/15 11:30:13;;;;;;;2.28;0.70;;;;;;;;;;5114159;28;20047;-83
2023/10/15 11:32:39;;;;;;;1.65;0.63;;;;;;;;;;5113232;28;20484;-81
2023/10/15 11:35:07;;;;;;;2.17;0.93;;;;;;;;;;5114099;28;20023;-83
2023/10/15 11:37:32;;;;;;;0.63;0.63;;;;;;;;;;5114497;28;20023;-81
2023/10/15 11:39:58;;;;;;;0.80;0.70;;;;;;;;;;5107853;28;20397;-83
2023/10/15 11:42:25;;;;;;;1.38;0.43;;;;;;;;;;5109984;28;20045;-81
2023/10/15 11:44:55;;;;;;;3.10;0.43;;;;;;;;;;5109119;28;20418;-83
2023/10/15 11:47:26;;;;;;;0.70;0.70;;;;;;;;;;5110371;28;20315;-83
2023/10/15 11:49:55;;;;;;;0.32;0.32;;;;;;;;;;5109718;28;20012;-83
2023/10/15 11:52:22;;;;;;;0.40;0.40;;;;;;;;;;5112900;28;20443;-83
2023/10/15 11:54:51;;;;;;;6.35;0.80;;;;;;;;;;5114017;28;20448;-83
2023/10/15 11:57:26;;;;;;;4.10;1.05;;;;;;;;;;5122852;28;20034;-82
2023/10/15 11:59:53;;;;;;;1.63;0.60;;;;;;;;;;5113293;28;20401;-82
2023/10/15 12:02:22;;;;;;;0.28;0.28;;;;;;;;;;5112146;28;20084;-82
2023/10/15 12:04:51;;;;;;;0.60;0.60;;;;;;;;;;5110437;28;20135;-82
2023/10/15 12:07:18;;;;;;;0.75;0.43;;;;;;;;;;5112806;28;20023;-82
2023/10/15 12:09:47;;;;;;;2.17;0.40;;;;;;;;;;5111412;28;20031;-82
2023/10/15 12:12:13;;;;;;;1.88;0.63;;;;;;;;;;5109938;28;20028;-82
2023/10/15 12:14:38;;;;;;;0.70;0.70;;;;;;;;;;5109395;28;20051;-82
2023/10/15 12:17:04;;;;;;;1.02;0.63;;;;;;;;;;5108378;28;20026;-82
2023/10/15 12:19:29;;;;;;;0.50;0.50;;;;;;;;;;5108952;28;20043;-82
2023/10/15 12:21:55;;;;;;;0.77;0.75;;;;;;;;;;5112341;28;20037;-82
2023/10/15 12:24:22;;;;;;;0.30;0.30;;;;;;;;;;5108054;28;20031;-82
2023/10/15 12:26:48;;;;;;;0.35;0.28;;;;;;;;;;5111861;28;20414;-82
2023/10/15 12:29:13;;;;;;;1.05;0.60;;;;;;;;;;5109511;28;20667;-82
2023/10/15 12:31:43;;;;;;;4.30;0.68;;;;;;;;;;5100886;28;20115;-82
2023/10/15 12:34:09;;;;;;;1.13;0.65;;;;;;;;;;5113283;28;20012;-82
2023/10/15 12:36:34;;;;;;;1.25;0.65;;;;;;;;;;5112583;28;20091;-82
2023/10/15 12:38:59;;;;;;;1.23;0.80;;;;;;;;;;5112982;28;20028;-81
2023/10/15 12:41:25;;;;;;;0.73;0.70;;;;;;;;;;5110042;28;20153;-81
2023/10/15 12:43:58;;;;;;;2.75;1.10;;;;;;;;;;5113339;28;20023;-81
2023/10/15 12:46:24;;;;;;;0.90;0.75;;;;;;;;;;5110485;28;20033;-81
2023/10/15 12:48:49;;;;;;;0.60;0.60;;;;;;;;;;5103406;28;20122;-81
2023/10/15 12:51:15;;;;;;;0.30;0.30;;;;;;;;;;5109357;28;20024;-81
2023/10/15 12:53:41;;;;;;;0.20;0.20;;;;;;;;;;5098371;28;20024;-81
2023/10/15 12:56:06;;;;;;;0.20;0.20;;;;;;;;;;5107315;28;20055;-81
2023/10/15 12:58:31;;;;;;;2.10;1.67;;;;;;;;;;5111266;28;20039;-81
2023/10/15 13:00:58;;;;;;;0.40;0.40;;;;;;;;;;5112609;28;20667;-82
2023/10/15 13:03:23;;;;;;;0.40;0.40;;;;;;;;;;5111334;28;20106;-81
2023/10/15 13:05:48;;;;;;;0.73;0.50;;;;;;;;;;5108145;28;20056;-81
2023/10/15 13:08:14;;;;;;;0.70;0.70;;;;;;;;;;5109407;28;20027;-82
2023/10/15 13:10:40;;;;;;;0.28;0.28;;;;;;;;;;5106931;28;20028;-82
2023/10/15 13:13:06;;;;;;;1.35;0.43;;;;;;;;;;5108787;28;20111;-82
2023/10/15 13:15:32;;;;;;;0.50;0.50;;;;;;;;;;5107688;28;20068;-81
2023/10/15 13:17:59;;;;;;;0.60;0.60;;;;;;;;;;5112512;28;20031;-81
2023/10/15 13:20:24;;;;;;;0.32;0.20;;;;;;;;;;5110262;28;20054;-81
2023/10/15 13:22:50;;;;;;;2.92;0.30;;;;;;;;;;5112000;28;20489;-81
2023/10/15 13:25:16;;;;;;;0.35;0.35;;;;;;;;;;5106012;28;20043;-81
2023/10/15 13:27:48;;;;;;;0.20;0.20;;;;;;;;;;5114942;28;20081;-82
2023/10/15 13:30:15;;;;;;;2.97;0.80;;;;;;;;;;5109703;28;20024;-81
2023/10/15 13:32:46;;;;;;;0.45;0.30;;;;;;;;;;5117082;28;20019;-83
2023/10/15 13:35:15;;;;;;;0.25;0.25;;;;;;;;;;5112409;28;20118;-80
2023/10/15 13:37:42;;;;;;;0.50;0.45;;;;;;;;;;5111195;28;20048;-82
2023/10/15 13:40:12;;;;;;;0.40;0.40;;;;;;;;;;5108248;28;20030;-82
2023/10/15 13:42:42;;;;;;;0.40;0.40;;;;;;;;;;5104070;28;20035;-82
2023/10/15 13:45:09;;;;;;;1.58;0.50;;;;;;;;;;5105346;28;20042;-83
2023/10/15 13:47:37;;;;;;;0.30;0.30;;;;;;;;;;5106740;28;20055;-83
2023/10/15 13:50:07;;;;;;;0.50;0.50;;;;;;;;;;5101990;28;21484;-83
2023/10/15 13:52:39;;;;;;;0.68;0.65;;;;;;;;;;5102255;28;20028;-81
2023/10/15 13:55:08;;;;;;;0.57;0.57;;;;;;;;;;5107932;28;20043;-83
2023/10/15 13:57:37;;;;;;;0.20;0.20;;;;;;;;;;5101753;28;20040;-83
2023/10/15 14:00:15;;;;;;;0.35;0.35;;;;;;;;;;5107883;28;20024;-84
2023/10/15 14:02:42;;;;;;;0.30;0.30;;;;;;;;;;5110808;28;20027;-83
2023/10/15 14:05:08;;;;;;;1.17;0.38;;;;;;;;;;5112925;28;20046;-83
2023/10/15 14:07:36;;;;;;;0.20;0.20;;;;;;;;;;5110297;28;20019;-83
2023/10/15 14:10:03;;;;;;;1.58;0.63;;;;;;;;;;5110673;28;20765;-83
2023/10/15 14:12:29;;;;;;;1.55;0.85;;;;;;;;;;5107818;28;20045;-83
2023/10/15 14:14:55;;;;;;;3.47;0.95;;;;;;;;;;5111338;28;20023;-83
2023/10/15 14:17:20;;;;;;;4.07;0.98;;;;;;;;;;5115831;28;20111;-85
2023/10/15 14:19:45;;;;;;;1.60;0.55;;;;;;;;;;5114410;28;20103;-83
2023/10/15 14:22:11;;;;;;;0.30;0.30;;;;;;;;;;5114257;28;20134;-82
2023/10/15 14:24:36;;;;;;;0.68;0.50;;;;;;;;;;5114841;28;20055;-82
2023/10/15 14:27:02;;;;;;;2.15;1.17;;;;;;;;;;5113689;28;20107;-83
2023/10/15 14:29:27;;;;;;;0.63;0.50;;;;;;;;;;5110867;28;20027;-83
2023/10/15 14:31:53;;;;;;;1.80;0.52;;;;;;;;;;5116776;28;20489;-83
2023/10/15 14:34:18;;;;;;;0.38;0.30;;;;;;;;;;5113234;28;20020;-82
2023/10/15 14:36:48;;;;;;;0.70;0.50;;;;;;;;;;5117435;28;20089;-83
2023/10/15 14:39:17;;;;;;;1.08;0.80;;;;;;;;;;5116322;28;20034;-83
2023/10/15 14:41:43;;;;;;;1.75;0.20;;;;;;;;;;5116618;28;20024;-82
2023/10/15 14:44:09;;;;;;;1.08;0.30;;;;;;;;;;5118146;28;20093;-82
2023/10/15 14:52:44;;;;;;;1.13;0.80;;;;;;;;;;5011531;28;20470;-83
2023/10/15 15:00:15;;;;;;;0.57;0.32;;;;;;;;;;5072168;28;20037;-83
2023/10/15 15:02:41;;;;;;;0.82;0.60;;;;;;;;;;5047351;28;20450;-82
2023/10/15 15:05:07;;;;;;;0.40;0.40;;;;;;;;;;5060906;28;20036;-83
2023/10/15 15:07:34;;;;;;;0.28;0.28;;;;;;;;;;5056112;28;20086;-83
2023/10/15 15:10:00;;;;;;;0.75;0.52;;;;;;;;;;5052825;28;20090;-82
2023/10/15 15:12:26;;;;;;;1.08;0.68;;;;;;;;;;5066138;28;20021;-82